^^
Meteo Knjazevac Station Historical Data
Daily Summary for August 5, 2021 Units:  English    Metric   Both
Daily Weekly Monthly Yearly Custom
  High: Low: Average:
Temperature: 35.8 °F 34.6 °F 35.4 °F
Dew Point: 35.5 °F 33.9 °F 35.1 °F
Humidity: 99% 96% 99%
Wind Speed: 3mph 0mph 1.3mph
Wind Gust: 5mph - -
Wind- - WSW
Pressure: 29.87 in 29.85 in -
Precipitation: 0.00 in    
Historical Graphs
 
 
Tabular Data for August 5, 2021
Time Temperature Dew Point Pressure Wind Wind Speed Wind Gust Humidity Rainfall Rate (Hourly) solar Conditions
00:00 34.9 °F 33.9 °F 29.87 in NNW 1 mph 2 mph 96% 0.00 in 0 W/m2
00:10 34.9 °F 34.4 °F 29.87 in West 1 mph 2 mph 98% 0.00 in 0 W/m2
00:20 34.9 °F 34.4 °F 29.87 in WNW 1 mph 2 mph 98% 0.00 in 0 W/m2
00:30 35.1 °F 34.6 °F 29.87 in WNW 1 mph 2 mph 98% 0.00 in 0 W/m2
00:40 35.1 °F 34.6 °F 29.86 in WNW 2 mph 3 mph 98% 0.00 in 0 W/m2
00:50 35.2 °F 34.7 °F 29.86 in WNW 1 mph 3 mph 98% 0.00 in 0 W/m2
01:00 35.2 °F 34.7 °F 29.86 in WNW 1 mph 3 mph 98% 0.00 in 0 W/m2
01:10 35.4 °F 35.2 °F 29.87 in WNW 2 mph 3 mph 99% 0.00 in 0 W/m2
01:20 35.4 °F 35.2 °F 29.86 in Calm   2 mph 99% 0.00 in 0 W/m2
01:30 35.5 °F 35.2 °F 29.86 in WNW 1 mph 2 mph 99% 0.00 in 0 W/m2
01:40 35.5 °F 35.2 °F 29.87 in WSW 2 mph 3 mph 99% 0.00 in 0 W/m2
01:50 35.6 °F 35.3 °F 29.87 in WNW 1 mph 3 mph 99% 0.00 in 0 W/m2
02:00 35.6 °F 35.3 °F 29.87 in West 1 mph 3 mph 99% 0.00 in 0 W/m2
02:10 35.6 °F 35.3 °F 29.87 in West 1 mph 2 mph 99% 0.00 in 0 W/m2
02:20 35.6 °F 35.3 °F 29.87 in SSW 1 mph 2 mph 99% 0.00 in 0 W/m2
02:30 35.6 °F 35.3 °F 29.86 in SSW 1 mph 2 mph 99% 0.00 in 0 W/m2
02:40 35.7 °F 35.4 °F 29.86 in SSW 1 mph 2 mph 99% 0.00 in 0 W/m2
02:50 35.7 °F 35.4 °F 29.86 in WSW 1 mph 3 mph 99% 0.00 in 0 W/m2
03:00 35.8 °F 35.5 °F 29.86 in WNW 1 mph 3 mph 99% 0.00 in 0 W/m2
03:10 35.8 °F 35.5 °F 29.86 in WNW 2 mph 3 mph 99% 0.00 in 0 W/m2
03:20 35.8 °F 35.5 °F 29.86 in WNW 1 mph 2 mph 99% 0.00 in 0 W/m2
03:30 35.8 °F 35.5 °F 29.85 in Calm   2 mph 99% 0.00 in 0 W/m2
03:40 35.8 °F 35.5 °F 29.85 in SW 1 mph 3 mph 99% 0.00 in 0 W/m2
03:50 35.8 °F 35.5 °F 29.85 in WSW 1 mph 2 mph 99% 0.00 in 0 W/m2
04:00 35.8 °F 35.5 °F 29.85 in WNW 1 mph 3 mph 99% 0.00 in 0 W/m2
04:10 35.8 °F 35.5 °F 29.85 in WSW 1 mph 3 mph 99% 0.00 in 0 W/m2
04:20 35.8 °F 35.5 °F 29.85 in West 1 mph 3 mph 99% 0.00 in 0 W/m2
04:30 35.8 °F 35.5 °F 29.85 in West 1 mph 3 mph 99% 0.00 in 0 W/m2
04:40 35.6 °F 35.3 °F 29.85 in SSW 1 mph 2 mph 99% 0.00 in 0 W/m2
04:50 35.5 °F 35.2 °F 29.85 in SSW 2 mph 5 mph 99% 0.00 in 0 W/m2
05:00 35.4 °F 35.2 °F 29.85 in South 2 mph 5 mph 99% 0.00 in 0 W/m2
05:10 35.2 °F 35 °F 29.85 in SSW 2 mph 4 mph 99% 0.00 in 0 W/m2
05:20 35.2 °F 35 °F 29.85 in SSW 2 mph 4 mph 99% 0.00 in 0 W/m2
05:30 35.2 °F 35 °F 29.85 in WSW 1 mph 5 mph 99% 0.00 in 0 W/m2
05:40 35.2 °F 35 °F 29.86 in SW 2 mph 4 mph 99% 0.00 in 0 W/m2
05:50 35.1 °F 34.8 °F 29.86 in SSW 2 mph 3 mph 99% 0.00 in 0 W/m2
06:00 34.9 °F 34.6 °F 29.86 in SSW 2 mph 5 mph 99% 0.00 in 0 W/m2
06:10 34.9 °F 34.6 °F 29.85 in South 1 mph 5 mph 99% 0.00 in 0 W/m2
06:20 34.7 °F 34.4 °F 29.85 in SSW 2 mph 5 mph 99% 0.00 in 0 W/m2
06:30 34.7 °F 34.4 °F 29.86 in WSW 1 mph 3 mph 99% 0.00 in 0 W/m2
06:40 34.6 °F 34.4 °F 29.86 in SW 3 mph 5 mph 99% 0.00 in 0 W/m2
Knjazevac, Serbia
Compliments of Weather Underground - 2 mb